PHVOP EDLS-EDLS
Flight info
| Callsign | PHVOP |
|---|---|
| Flight time | N/A |
| Altitude | 1500 |
| Route | EDLS EDLS |
| Aircraft | CR22/L-V/N |
Departure
| Time | 2026-05-07 19:48 |
|---|---|
| Airport | Stadtlohn-Vreden Airfield (EDLS) |
Arrival
| Time | N/A |
|---|---|
| Airport | Stadtlohn-Vreden Airfield (EDLS) |
| Time | Latitude | Longitude | Altitude | Speed | Heading |
|---|---|---|---|---|---|
| 2026-05-07 19:38 | 51.99599 | 6.84753 | 163 ft | 0 kts | 197° |
| 2026-05-07 19:45 | 51.99515 | 6.84727 | 160 ft | 12 kts | 186° |
| 2026-05-07 19:45 | 51.99500 | 6.84714 | 160 ft | 6 kts | 263° |
| 2026-05-07 19:45 | 51.99527 | 6.84658 | 160 ft | 0 kts | 290° |
| 2026-05-07 19:46 | 51.99530 | 6.84639 | 159 ft | 13 kts | 290° |
| 2026-05-07 19:46 | 51.99570 | 6.84405 | 160 ft | 24 kts | 286° |
| 2026-05-07 19:46 | 51.99606 | 6.84192 | 160 ft | 17 kts | 287° |
| 2026-05-07 19:46 | 51.99647 | 6.83960 | 160 ft | 26 kts | 287° |
| 2026-05-07 19:47 | 51.99701 | 6.83658 | 160 ft | 21 kts | 285° |
| 2026-05-07 19:47 | 51.99733 | 6.83473 | 161 ft | 22 kts | 284° |
| 2026-05-07 19:47 | 51.99719 | 6.83335 | 161 ft | 21 kts | 170° |
| 2026-05-07 19:47 | 51.99605 | 6.83930 | 173 ft | 83 kts | 106° |
| 2026-05-07 19:48 | 51.99425 | 6.84871 | 428 ft | 88 kts | 108° |
| 2026-05-07 19:48 | 51.99208 | 6.85819 | 720 ft | 90 kts | 114° |
| 2026-05-07 19:48 | 51.98939 | 6.86710 | 1052 ft | 87 kts | 117° |
| 2026-05-07 19:48 | 51.98657 | 6.87631 | 1178 ft | 94 kts | 105° |
| 2026-05-07 19:49 | 51.98907 | 6.88561 | 1289 ft | 107 kts | 33° |
| 2026-05-07 19:49 | 51.99680 | 6.88726 | 1340 ft | 118 kts | 1° |
| 2026-05-07 19:49 | 52.00240 | 6.87747 | 1399 ft | 138 kts | 291° |
| 2026-05-07 19:49 | 52.00601 | 6.86268 | 1541 ft | 143 kts | 295° |
| 2026-05-07 19:50 | 52.01177 | 6.85101 | 1820 ft | 131 kts | 351° |
| 2026-05-07 19:50 | 52.02092 | 6.85149 | 1967 ft | 132 kts | 10° |
| 2026-05-07 19:50 | 52.03067 | 6.85336 | 1918 ft | 150 kts | 5° |
| 2026-05-07 19:50 | 52.03989 | 6.84738 | 2241 ft | 140 kts | 321° |
| 2026-05-07 19:51 | 52.04409 | 6.83402 | 2517 ft | 137 kts | 285° |
| 2026-05-07 19:51 | 52.04872 | 6.81964 | 2513 ft | 151 kts | 306° |
| 2026-05-07 19:51 | 52.05454 | 6.80482 | 2507 ft | 159 kts | 305° |
| 2026-05-07 19:51 | 52.06056 | 6.78943 | 2505 ft | 163 kts | 304° |
| 2026-05-07 19:52 | 52.06670 | 6.77376 | 2511 ft | 165 kts | 305° |
| 2026-05-07 19:52 | 52.07329 | 6.75837 | 2507 ft | 166 kts | 309° |
| 2026-05-07 19:52 | 52.07913 | 6.74211 | 2492 ft | 167 kts | 298° |
| 2026-05-07 19:52 | 52.08429 | 6.72520 | 2494 ft | 167 kts | 298° |
| 2026-05-07 19:53 | 52.08947 | 6.70827 | 2493 ft | 167 kts | 298° |
| 2026-05-07 19:53 | 52.09461 | 6.69137 | 2489 ft | 167 kts | 298° |
| 2026-05-07 19:53 | 52.09974 | 6.67453 | 2490 ft | 167 kts | 298° |
| 2026-05-07 19:53 | 52.10484 | 6.65788 | 2491 ft | 167 kts | 298° |
| 2026-05-07 19:54 | 52.11002 | 6.64096 | 2490 ft | 167 kts | 298° |
| 2026-05-07 19:54 | 52.11522 | 6.62408 | 2489 ft | 167 kts | 298° |
| 2026-05-07 19:54 | 52.12042 | 6.60721 | 2486 ft | 167 kts | 298° |
| 2026-05-07 19:54 | 52.12558 | 6.59036 | 2490 ft | 166 kts | 298° |
| 2026-05-07 19:55 | 52.13072 | 6.57353 | 2490 ft | 166 kts | 298° |
| 2026-05-07 19:55 | 52.13587 | 6.55672 | 2487 ft | 166 kts | 298° |
| 2026-05-07 19:55 | 52.14105 | 6.53990 | 2489 ft | 166 kts | 300° |
| 2026-05-07 19:55 | 52.14666 | 6.52341 | 2488 ft | 166 kts | 302° |
| 2026-05-07 19:56 | 52.15274 | 6.50745 | 2488 ft | 166 kts | 305° |
| 2026-05-07 19:56 | 52.15928 | 6.49202 | 2484 ft | 165 kts | 308° |
| 2026-05-07 19:56 | 52.16629 | 6.47717 | 2482 ft | 166 kts | 311° |
| 2026-05-07 19:56 | 52.17376 | 6.46283 | 2486 ft | 166 kts | 314° |
| 2026-05-07 19:57 | 52.18166 | 6.44909 | 2487 ft | 166 kts | 317° |
| 2026-05-07 19:57 | 52.18993 | 6.43590 | 2482 ft | 166 kts | 319° |
| 2026-05-07 19:57 | 52.19830 | 6.42361 | 2675 ft | 153 kts | 322° |
| 2026-05-07 19:57 | 52.20738 | 6.41664 | 2870 ft | 145 kts | 3° |
| 2026-05-07 19:58 | 52.21724 | 6.41939 | 2996 ft | 144 kts | 15° |
| 2026-05-07 19:58 | 52.22714 | 6.42256 | 3158 ft | 145 kts | 18° |
| 2026-05-07 19:58 | 52.23664 | 6.42770 | 3404 ft | 144 kts | 17° |
| 2026-05-07 19:58 | 52.24667 | 6.42826 | 3634 ft | 146 kts | 353° |
| 2026-05-07 19:59 | 52.25660 | 6.42466 | 3866 ft | 147 kts | 351° |
| 2026-05-07 19:59 | 52.26662 | 6.42067 | 4074 ft | 149 kts | 349° |
| 2026-05-07 19:59 | 52.27668 | 6.41653 | 4302 ft | 149 kts | 349° |
| 2026-05-07 19:59 | 52.28675 | 6.41231 | 4535 ft | 150 kts | 349° |
| 2026-05-07 20:00 | 52.29686 | 6.40811 | 4769 ft | 150 kts | 349° |
| 2026-05-07 20:00 | 52.30683 | 6.40394 | 4995 ft | 150 kts | 348° |
| 2026-05-07 20:00 | 52.31706 | 6.39966 | 5226 ft | 150 kts | 349° |
| 2026-05-07 20:00 | 52.32721 | 6.39543 | 5454 ft | 151 kts | 348° |
| 2026-05-07 20:01 | 52.33729 | 6.39123 | 5684 ft | 152 kts | 348° |
| 2026-05-07 20:01 | 52.34754 | 6.38693 | 5915 ft | 152 kts | 347° |
| 2026-05-07 20:01 | 52.35785 | 6.38261 | 6094 ft | 155 kts | 347° |
| 2026-05-07 20:01 | 52.36860 | 6.37817 | 6102 ft | 163 kts | 347° |
| 2026-05-07 20:02 | 52.37975 | 6.37353 | 6107 ft | 167 kts | 347° |
| 2026-05-07 20:02 | 52.39108 | 6.36880 | 6108 ft | 170 kts | 347° |
| 2026-05-07 20:02 | 52.40276 | 6.36388 | 6110 ft | 176 kts | 347° |
| 2026-05-07 20:02 | 52.41471 | 6.35888 | 6114 ft | 178 kts | 347° |
| 2026-05-07 20:03 | 52.42678 | 6.35380 | 6116 ft | 180 kts | 347° |
| 2026-05-07 20:03 | 52.43877 | 6.34791 | 6101 ft | 181 kts | 336° |
| 2026-05-07 20:03 | 52.44853 | 6.33497 | 6094 ft | 182 kts | 311° |
| 2026-05-07 20:03 | 52.45625 | 6.31855 | 6098 ft | 182 kts | 309° |
| 2026-05-07 20:04 | 52.46404 | 6.30226 | 6098 ft | 182 kts | 309° |
| 2026-05-07 20:04 | 52.47180 | 6.28587 | 6096 ft | 182 kts | 306° |
| 2026-05-07 20:04 | 52.47934 | 6.26920 | 6098 ft | 182 kts | 307° |
| 2026-05-07 20:04 | 52.48714 | 6.25284 | 6098 ft | 182 kts | 308° |
| 2026-05-07 20:05 | 52.49501 | 6.23653 | 6096 ft | 182 kts | 308° |
| 2026-05-07 20:05 | 52.50286 | 6.22023 | 6098 ft | 182 kts | 308° |
| 2026-05-07 20:05 | 52.51070 | 6.20390 | 6101 ft | 182 kts | 308° |
| 2026-05-07 20:05 | 52.51852 | 6.18753 | 6098 ft | 182 kts | 308° |
| 2026-05-07 20:06 | 52.52636 | 6.17115 | 6094 ft | 182 kts | 308° |
| 2026-05-07 20:06 | 52.53418 | 6.15475 | 6094 ft | 182 kts | 308° |
| 2026-05-07 20:06 | 52.54202 | 6.13832 | 6094 ft | 182 kts | 308° |
| 2026-05-07 20:06 | 52.54983 | 6.12193 | 6094 ft | 182 kts | 308° |
| 2026-05-07 20:07 | 52.55719 | 6.10504 | 6094 ft | 182 kts | 297° |
| 2026-05-07 20:07 | 52.56010 | 6.08495 | 6099 ft | 182 kts | 271° |
| 2026-05-07 20:07 | 52.55784 | 6.06466 | 6098 ft | 182 kts | 247° |
| 2026-05-07 20:07 | 52.55181 | 6.04646 | 6099 ft | 181 kts | 239° |
| 2026-05-07 20:08 | 52.54576 | 6.02857 | 6097 ft | 182 kts | 240° |
| 2026-05-07 20:08 | 52.53954 | 6.01020 | 6101 ft | 182 kts | 240° |
| 2026-05-07 20:08 | 52.53367 | 5.99255 | 5739 ft | 176 kts | 241° |
| 2026-05-07 20:08 | 52.52769 | 5.97483 | 5546 ft | 168 kts | 239° |
| 2026-05-07 20:09 | 52.52223 | 5.95888 | 5519 ft | 158 kts | 237° |
| 2026-05-07 20:09 | 52.51672 | 5.94281 | 5336 ft | 160 kts | 237° |
| 2026-05-07 20:09 | 52.51135 | 5.92712 | 5188 ft | 160 kts | 238° |
| 2026-05-07 20:10 | 52.50051 | 5.89524 | 4888 ft | 160 kts | 238° |
| 2026-05-07 20:10 | 52.49504 | 5.87925 | 4739 ft | 161 kts | 238° |
| 2026-05-07 20:10 | 52.48960 | 5.86326 | 4596 ft | 161 kts | 238° |
| 2026-05-07 20:10 | 52.48413 | 5.84724 | 4442 ft | 161 kts | 237° |
| 2026-05-07 20:11 | 52.47865 | 5.83124 | 4290 ft | 161 kts | 238° |
| 2026-05-07 20:11 | 52.47318 | 5.81522 | 4139 ft | 161 kts | 238° |
| 2026-05-07 20:11 | 52.46769 | 5.79918 | 3981 ft | 163 kts | 238° |
| 2026-05-07 20:11 | 52.46191 | 5.78249 | 3848 ft | 173 kts | 238° |
| 2026-05-07 20:12 | 52.45595 | 5.76506 | 3707 ft | 177 kts | 238° |
| 2026-05-07 20:12 | 52.44987 | 5.74728 | 3585 ft | 180 kts | 238° |
| 2026-05-07 20:12 | 52.44366 | 5.72917 | 3469 ft | 183 kts | 238° |
| 2026-05-07 20:12 | 52.43740 | 5.71090 | 3355 ft | 185 kts | 239° |
| 2026-05-07 20:13 | 52.43109 | 5.69249 | 3237 ft | 185 kts | 239° |
| 2026-05-07 20:13 | 52.42478 | 5.67412 | 3119 ft | 185 kts | 239° |
| 2026-05-07 20:13 | 52.41849 | 5.65577 | 3009 ft | 185 kts | 239° |
| 2026-05-07 20:13 | 52.41221 | 5.63757 | 2991 ft | 183 kts | 238° |
| 2026-05-07 20:14 | 52.40592 | 5.61945 | 3017 ft | 183 kts | 239° |
| 2026-05-07 20:14 | 52.39968 | 5.60129 | 3018 ft | 183 kts | 238° |
| 2026-05-07 20:14 | 52.39341 | 5.58311 | 3016 ft | 184 kts | 238° |
| 2026-05-07 20:14 | 52.38717 | 5.56500 | 2985 ft | 179 kts | 240° |
| 2026-05-07 20:15 | 52.38125 | 5.54730 | 2412 ft | 178 kts | 240° |
| 2026-05-07 20:15 | 52.37490 | 5.52910 | 2017 ft | 185 kts | 239° |
| 2026-05-07 20:15 | 52.36793 | 5.51250 | 2011 ft | 173 kts | 233° |
| 2026-05-07 20:15 | 52.36092 | 5.49662 | 2007 ft | 171 kts | 234° |
| 2026-05-07 20:16 | 52.35406 | 5.48082 | 2002 ft | 170 kts | 234° |
| 2026-05-07 20:16 | 52.34724 | 5.46503 | 2000 ft | 170 kts | 234° |
| 2026-05-07 20:16 | 52.34020 | 5.44998 | 2003 ft | 168 kts | 230° |
| 2026-05-07 20:16 | 52.33297 | 5.43491 | 2000 ft | 168 kts | 231° |
| 2026-05-07 20:17 | 52.32611 | 5.41950 | 1997 ft | 168 kts | 240° |
| 2026-05-07 20:17 | 52.32343 | 5.40104 | 1996 ft | 169 kts | 269° |
| 2026-05-07 20:17 | 52.32590 | 5.38239 | 1931 ft | 170 kts | 297° |
| 2026-05-07 20:17 | 52.33321 | 5.36719 | 1813 ft | 172 kts | 322° |
| 2026-05-07 20:18 | 52.34356 | 5.35779 | 1716 ft | 169 kts | 347° |
| 2026-05-07 20:18 | 52.35496 | 5.35608 | 1704 ft | 162 kts | 8° |
| 2026-05-07 20:18 | 52.36544 | 5.36161 | 1702 ft | 157 kts | 31° |
| 2026-05-07 20:18 | 52.37399 | 5.37233 | 1699 ft | 154 kts | 50° |
| 2026-05-07 20:19 | 52.37885 | 5.38766 | 1707 ft | 152 kts | 73° |
| 2026-05-07 20:19 | 52.38435 | 5.40194 | 1697 ft | 144 kts | 40° |
| 2026-05-07 20:19 | 52.39294 | 5.40621 | 1697 ft | 124 kts | 356° |
| 2026-05-07 20:19 | 52.40036 | 5.40118 | 1696 ft | 107 kts | 342° |
| 2026-05-07 20:20 | 52.40676 | 5.39684 | 1692 ft | 93 kts | 341° |
| 2026-05-07 20:20 | 52.41227 | 5.39268 | 1685 ft | 83 kts | 339° |
| 2026-05-07 20:20 | 52.41745 | 5.38809 | 1730 ft | 97 kts | 333° |
| 2026-05-07 20:20 | 52.42274 | 5.37882 | 1775 ft | 140 kts | 274° |
| 2026-05-07 20:21 | 52.41654 | 5.36895 | 1755 ft | 134 kts | 183° |
| 2026-05-07 20:21 | 52.40786 | 5.36851 | 1819 ft | 124 kts | 174° |
| 2026-05-07 20:21 | 52.39908 | 5.36925 | 1724 ft | 127 kts | 174° |
| 2026-05-07 20:21 | 52.39038 | 5.36972 | 1718 ft | 123 kts | 175° |
| 2026-05-07 20:22 | 52.38191 | 5.37003 | 1718 ft | 120 kts | 175° |
| 2026-05-07 20:22 | 52.37359 | 5.37029 | 1711 ft | 118 kts | 175° |
| 2026-05-07 20:22 | 52.36959 | 5.37727 | 1594 ft | 111 kts | 47° |
| 2026-05-07 20:22 | 52.37653 | 5.38250 | 1530 ft | 106 kts | 26° |
| 2026-05-07 20:23 | 52.38271 | 5.38856 | 1567 ft | 103 kts | 48° |
| 2026-05-07 20:23 | 52.38761 | 5.39731 | 1550 ft | 106 kts | 47° |
| 2026-05-07 20:23 | 52.39256 | 5.40632 | 1543 ft | 108 kts | 51° |
| 2026-05-07 20:23 | 52.39733 | 5.41593 | 1516 ft | 109 kts | 43° |
| 2026-05-07 20:24 | 52.40248 | 5.42450 | 1571 ft | 104 kts | 52° |
| 2026-05-07 20:24 | 52.40742 | 5.43294 | 1569 ft | 100 kts | 49° |
| 2026-05-07 20:24 | 52.41197 | 5.44056 | 1381 ft | 92 kts | 48° |
| 2026-05-07 20:24 | 52.41630 | 5.44883 | 1057 ft | 94 kts | 41° |
| 2026-05-07 20:25 | 52.42058 | 5.45574 | 788 ft | 82 kts | 50° |
| 2026-05-07 20:25 | 52.42433 | 5.46252 | 684 ft | 80 kts | 44° |
| 2026-05-07 20:25 | 52.42800 | 5.46971 | 583 ft | 81 kts | 39° |
| 2026-05-07 20:25 | 52.43178 | 5.47621 | 517 ft | 79 kts | 48° |
| 2026-05-07 20:26 | 52.43548 | 5.48286 | 394 ft | 77 kts | 46° |
| 2026-05-07 20:26 | 52.43903 | 5.48910 | 279 ft | 72 kts | 47° |
| 2026-05-07 20:26 | 52.44276 | 5.49580 | 183 ft | 86 kts | 48° |
| 2026-05-07 20:26 | 52.44665 | 5.50280 | 30 ft | 75 kts | 47° |
| 2026-05-07 20:27 | 52.44982 | 5.50845 | -9 ft | 58 kts | 46° |
| 2026-05-07 20:27 | 52.45215 | 5.51266 | -7 ft | 36 kts | 48° |
| 2026-05-07 20:27 | 52.45350 | 5.51502 | -7 ft | 15 kts | 51° |
| 2026-05-07 20:27 | 52.45443 | 5.51675 | -9 ft | 22 kts | 46° |
| 2026-05-07 20:28 | 52.45447 | 5.51860 | -9 ft | 21 kts | 138° |
| 2026-05-07 20:28 | 52.45409 | 5.52006 | -9 ft | 15 kts | 47° |
| 2026-05-07 20:28 | 52.45489 | 5.52148 | -9 ft | 18 kts | 48° |
| 2026-05-07 20:28 | 52.45571 | 5.52292 | -9 ft | 9 kts | 50° |
| 2026-05-07 20:29 | 52.45556 | 5.52363 | -9 ft | 5 kts | 144° |
| 2026-05-07 20:29 | 52.45509 | 5.52359 | -9 ft | 0 kts | 229° |